• Join FlightAware (Why Join?)
  • Login
  • US Flag 
07:31PM EDT


 

Airport Tracker/Info


-or-


 

Live Flight TrackerFlight Track Log ✈ TRS460 ✈ 02-May-2013 ✈ KGRR - KBWI

Flight Track Log - Related Links

Times and Time Zones

All times are in EDT time to prevent confusion due to time zone crossing. See the TRS460 flight status page for this flight to view local times or setup timezone preferences in your user account.

Time Position Orientation Groundspeed Altitude Reporting Facility
EDT Latitude Longitude Course Direction KTS MPH feet Rate Location/Type
05:57PM 42.8300 -85.4772 124° Southeast 176 203 2,900  Level Chicago Center
05:58PM 42.7961 -85.4092 124° Southeast 207 238 4,500 1,800 Climbing Chicago Center
05:59PM 42.7542 -85.3278 125° Southeast 250 288 6,700 2,100 Climbing Chicago Center
06:00PM 42.7103 -85.2425 125° Southeast 269 310 8,900 1,920 Climbing Chicago Center
06:01PM 42.6639 -85.1519 125° Southeast 286 329 10,700 1,560 Climbing Chicago Center
06:02PM 42.6164 -85.0139 115° Southeast 328 377 12,200 1,620 Climbing Chicago Center
06:03PM 42.5733 -84.8906 115° Southeast 354 407 14,100 1,740 Climbing Chicago Center
06:04PM 42.5278 -84.7625 116° Southeast 371 427 15,900 1,740 Climbing Chicago Center
06:05PM 42.4806 -84.6317 116° Southeast 383 441 17,700 1,620 Climbing Chicago Center
06:06PM 42.4331 -84.5022 116° Southeast 385 443 19,000 1,680 Climbing Cleveland Center
06:07PM 42.3792 -84.3642 118° Southeast 401 461 20,900 1,800 Climbing Cleveland Center
06:08PM 42.3275 -84.2206 116° Southeast 412 474 22,700 1,620 Climbing Cleveland Center
06:09PM 42.2739 -84.0742 116° Southeast 423 487 24,200 1,380 Climbing Cleveland Center
06:10PM 42.2047 -83.9414 125° Southeast 428 493 25,500 1,200 Climbing Cleveland Center
06:11PM 42.1206 -83.8194 133° Southeast 433 498 26,600 1,080 Climbing Cleveland Center
06:12PM 42.0467 -83.7039 131° Southeast 448 516 27,700 1,140 Climbing Cleveland Center
06:13PM 41.9606 -83.5767 132° Southeast 453 521 28,900 1,140 Climbing Cleveland Center
06:14PM 41.8761 -83.4528 132° Southeast 453 521 30,000 1,320 Climbing Cleveland Center
06:15PM 41.7936 -83.3294 132° Southeast 453 521 31,600 1,380 Climbing Cleveland Center
06:16PM 41.7111 -83.2061 132° Southeast 453 521 32,800 660 Climbing Cleveland Center
06:17PM 41.6203 -83.0747 133° Southeast 447 514 33,000 60 Climbing Cleveland Center
06:18PM 41.5414 -82.9553 131° Southeast 436 502 33,000  Level Cleveland Center
06:19PM 41.4583 -82.8386 134° Southeast 436 502 33,000  Level Cleveland Center
06:20PM 41.3731 -82.7167 133° Southeast 436 502 33,000  Level Cleveland Center
06:21PM 41.2919 -82.5978 132° Southeast 436 502 33,000  Level Cleveland Center
06:22PM 41.2103 -82.4819 133° Southeast 430 495 33,000  Level Cleveland Center
06:23PM 41.1269 -82.3611 132° Southeast 435 501 33,000  Level Cleveland Center
06:24PM 41.0514 -82.2544 133° Southeast 435 501 33,000  Level Cleveland Center
06:25PM 40.9822 -82.1206 124° Southeast 435 501 33,000  Level Cleveland Center
06:26PM 40.9111 -81.9844 125° Southeast 446 513 33,000  Level Cleveland Center
06:27PM 40.8397 -81.8456 124° Southeast 452 520 33,000  Level Cleveland Center
06:28PM 40.7683 -81.7072 124° Southeast 457 526 33,000  Level Cleveland Center
06:29PM 40.6967 -81.5744 125° Southeast 457 526 33,000  Level Cleveland Center
06:30PM 40.6225 -81.4367 125° Southeast 457 526 33,000  Level Cleveland Center
06:31PM 40.5464 -81.2881 124° Southeast 457 526 33,000  Level Cleveland Center
06:32PM 40.4742 -81.1536 125° Southeast 457 526 33,000  Level Cleveland Center
06:33PM 40.4167 -81.0031 117° Southeast 457 526 33,000  Level Cleveland Center
06:34PM 40.3586 -80.8556 117° Southeast 457 526 33,000  Level Cleveland Center
06:35PM 40.3006 -80.7028 116° Southeast 457 526 33,000  Level Cleveland Center
06:36PM 40.2422 -80.5558 117° Southeast 457 526 33,000  Level Cleveland Center
06:37PM 40.1900 -80.4172 116° Southeast 462 532 33,000  Level Cleveland Center
06:38PM 40.1208 -80.2544 119° Southeast 467 537 33,000  Level Cleveland Center
06:39PM 40.0642 -80.1056 116° Southeast 455 524 33,000  Level Cleveland Center
06:40PM 40.0133 -79.9678 116° Southeast 455 524 33,000  Level Cleveland Center
06:41PM 39.9542 -79.8194 117° Southeast 455 524 33,000  Level Cleveland Center
06:44PM 39.8139 -79.4681 117° Southeast 470 541 33,000 -720 Level Washington Center
06:44PM 39.7581 -79.3219 116° Southeast 465 535 30,600 -3,120 Descending Washington Center
06:45PM 39.6981 -79.1758 118° Southeast 460 529 26,900 -2,760 Descending Washington Center
06:47PM 39.6503 -79.0225 112° Southeast 460 529 25,000 -1,560 Descending Washington Center
06:47PM 39.6094 -78.8428 106° East 465 535 23,900 -2,640 Descending Washington Center
06:48PM 39.5739 -78.6878 107° East 465 535 19,900 -2,820 Descending Washington Center
06:49PM 39.5403 -78.5383 106° East 446 513 18,300 -1,320 Descending Washington Center
06:51PM 39.5103 -78.3944 105° East 427 491 17,300 -1,200 Descending Washington Center
06:52PM 39.4761 -78.2506 107° East 417 480 16,000 -1,200 Descending Washington Center
06:52PM 39.4497 -78.1097 104° East 407 468 15,000 -1,020 Descending Washington Center
06:53PM 39.4506 -77.9700 90° East 392 451 14,000 -780 Descending Washington Center
06:55PM 39.4486 -77.8572 91° East 385 443 13,500 -600 Descending Washington Center
06:56PM 39.4472 -77.7067 91° East 385 443 12,800 -780 Descending Washington Center
06:57PM 39.4453 -77.5694 91° East 385 443 12,000 -900 Descending Washington Center
06:57PM 39.4453 -77.4486 90° East 367 422 11,100 -600 Descending Washington Center
06:58PM 39.4500 -77.3500 86° East 283 326 11,000 -60 Descending Potomac TRACON
06:59PM 39.4667 -77.2667 75° East 251 289 11,000 -780 Level Potomac TRACON
07:00PM 39.4667 -77.1667 90° East 237 273 9,500 -1,440 Descending Potomac TRACON
07:01PM 39.4833 -77.1000 72° East 235 270 8,100 -780 Descending Potomac TRACON
07:02PM 39.5000 -77.0167 75° East 232 267 8,000 -60 Descending Potomac TRACON
07:03PM 39.5000 -76.9333 90° East 230 265 8,000 -660 Level Potomac TRACON
07:04PM 39.4667 -76.8667 123° Southeast 234 269 6,700 -1,440 Descending Potomac TRACON
07:05PM 39.4167 -76.8833 194° South 238 274 5,300 -1,440 Descending Potomac TRACON
07:06PM 39.3667 -76.9500 226° Southwest 231 266 4,000 -660 Descending Potomac TRACON
07:07PM 39.3167 -76.9333 166° South 220 253 4,000  Level Potomac TRACON
07:08PM 39.2667 -76.9667 207° Southwest 197 227 4,000  Level Potomac TRACON
07:09PM 39.2333 -77.0000 218° Southwest 188 216 4,000 -420 Level Potomac TRACON
07:10PM 39.1833 -77.0167 194° South 187 215 3,200 -1,020 Descending Potomac TRACON
07:11PM 39.1833 -76.9667 90° East 169 194 2,000 -600 Descending Potomac TRACON
07:12PM 39.1833 -76.9000 90° East 166 191 2,000  Level Potomac TRACON
07:13PM 39.1833 -76.8500 90° East 167 192 2,000 -180 Level Potomac TRACON
07:14PM 39.1833 -76.7833 90° East 165 190 1,700 -540 Descending Potomac TRACON
07:15PM 39.1833 -76.7333 90° East 136 157 1,000 -780 Descending Potomac TRACON